Time;durP1;ratioP1;P1;durP2;ratioP2;P2;SDS_P1;SDS_P2;PMS_P1;PMS_P2;Temp;Humidity;BMP_temperature;BMP_pressure;BME280_temperature;BME280_humidity;BME280_pressure;Samples;Min_cycle;Max_cycle;Signal;HPM_P1;HPM_P2
2022/07/31 00:00:43;;;;;;;0.50;0.40;;;21.50;99.90;;;;;;4974128;28;20850;-78
2022/07/31 00:03:10;;;;;;;0.50;0.40;;;21.50;99.90;;;;;;4974385;28;20853;-77
2022/07/31 00:05:37;;;;;;;0.50;0.30;;;21.50;99.90;;;;;;4973081;28;21006;-78
2022/07/31 00:08:04;;;;;;;0.50;0.40;;;21.50;99.90;;;;;;4974604;28;20531;-78
2022/07/31 00:10:32;;;;;;;0.50;0.30;;;21.40;99.90;;;;;;4974077;28;20476;-77
2022/07/31 00:12:59;;;;;;;0.50;0.30;;;21.40;99.90;;;;;;4973762;28;20986;-77
2022/07/31 00:15:27;;;;;;;0.50;0.30;;;21.40;99.90;;;;;;4974058;28;20535;-77
2022/07/31 00:17:54;;;;;;;0.50;0.30;;;21.30;99.90;;;;;;4974080;28;20532;-78
2022/07/31 00:20:21;;;;;;;0.50;0.30;;;21.30;99.90;;;;;;4973852;28;20443;-78
2022/07/31 00:22:49;;;;;;;0.50;0.30;;;21.20;99.90;;;;;;4973679;28;20516;-80
2022/07/31 00:25:18;;;;;;;0.50;0.40;;;21.10;99.90;;;;;;4973752;28;20829;-79
2022/07/31 00:27:46;;;;;;;0.50;0.40;;;21.10;99.90;;;;;;4974430;28;20637;-78
2022/07/31 00:30:15;;;;;;;0.50;0.30;;;21.10;99.90;;;;;;4974250;28;21007;-75
2022/07/31 00:32:44;;;;;;;0.50;0.30;;;21.10;99.90;;;;;;4973609;28;20468;-79
2022/07/31 00:35:12;;;;;;;0.50;0.30;;;21.00;99.90;;;;;;4974325;28;20476;-79
2022/07/31 00:37:40;;;;;;;0.50;0.30;;;21.00;99.90;;;;;;4974315;28;20444;-78
2022/07/31 00:40:09;;;;;;;0.50;0.40;;;20.90;99.90;;;;;;4974079;28;20489;-80
2022/07/31 00:42:36;;;;;;;0.50;0.30;;;20.90;99.90;;;;;;4973732;28;20568;-78
2022/07/31 00:45:03;;;;;;;0.50;0.30;;;20.90;99.90;;;;;;4974220;28;20528;-78
2022/07/31 00:47:31;;;;;;;0.50;0.30;;;20.90;99.90;;;;;;4973920;28;20455;-78
2022/07/31 00:49:59;;;;;;;0.50;0.30;;;20.90;99.90;;;;;;4974202;28;20447;-79
2022/07/31 00:52:26;;;;;;;0.50;0.30;;;20.80;99.90;;;;;;4972688;28;20512;-79
2022/07/31 00:54:52;;;;;;;0.50;0.40;;;20.70;99.90;;;;;;4973930;28;20443;-77
2022/07/31 00:57:19;;;;;;;0.50;0.33;;;20.70;99.90;;;;;;4973989;28;20480;-78
2022/07/31 00:59:46;;;;;;;0.50;0.30;;;20.60;99.90;;;;;;4973811;28;20528;-79
2022/07/31 01:02:13;;;;;;;0.50;0.30;;;20.60;99.90;;;;;;4973284;28;20910;-79
2022/07/31 01:04:40;;;;;;;0.50;0.30;;;20.60;99.90;;;;;;4973573;28;20520;-79
2022/07/31 01:07:08;;;;;;;0.50;0.33;;;20.50;99.90;;;;;;4973368;28;20536;-79
2022/07/31 01:09:35;;;;;;;0.50;0.30;;;20.50;99.90;;;;;;4973856;28;20528;-78
2022/07/31 01:12:07;;;;;;;0.50;0.40;;;20.50;99.90;;;;;;4973246;28;20648;-77
2022/07/31 01:14:38;;;;;;;0.50;0.30;;;20.40;99.90;;;;;;4973823;28;20515;-79
2022/07/31 01:17:06;;;;;;;0.50;0.40;;;20.40;99.90;;;;;;4973584;28;20432;-78
2022/07/31 01:19:39;;;;;;;0.50;0.30;;;20.40;99.90;;;;;;4973432;28;20447;-79
2022/07/31 01:22:20;;;;;;;0.50;0.30;;;20.30;99.90;;;;;;4972412;28;20484;-79
2022/07/31 01:24:59;;;;;;;0.50;0.30;;;20.30;99.90;;;;;;4973379;28;20604;-78
2022/07/31 01:27:32;;;;;;;0.50;0.30;;;20.30;99.90;;;;;;4973262;28;20503;-79
2022/07/31 01:30:04;;;;;;;0.50;0.40;;;20.30;99.90;;;;;;4972991;28;20472;-77
2022/07/31 01:32:37;;;;;;;0.50;0.30;;;20.20;99.90;;;;;;4972165;28;20468;-78
2022/07/31 01:35:12;;;;;;;0.50;0.30;;;20.20;99.90;;;;;;4972618;28;20456;-78
2022/07/31 01:37:43;;;;;;;0.50;0.30;;;20.20;99.90;;;;;;4973139;28;20441;-78
2022/07/31 01:40:14;;;;;;;0.50;0.30;;;20.20;99.90;;;;;;4972691;28;20895;-78
2022/07/31 01:42:44;;;;;;;0.50;0.40;;;20.30;99.90;;;;;;4972496;28;20587;-78
2022/07/31 01:45:14;;;;;;;0.50;0.43;;;20.30;99.90;;;;;;4972977;28;20437;-78
2022/07/31 01:47:43;;;;;;;0.50;0.30;;;20.30;99.90;;;;;;4972624;28;20725;-78
2022/07/31 01:50:11;;;;;;;0.50;0.30;;;20.30;99.90;;;;;;4973236;28;20475;-78
2022/07/31 01:52:41;;;;;;;0.50;0.30;;;20.30;99.90;;;;;;4971358;28;20461;-76
2022/07/31 01:55:11;;;;;;;0.50;0.30;;;20.30;99.90;;;;;;4972679;28;20448;-78
2022/07/31 01:57:41;;;;;;;0.50;0.30;;;20.30;99.90;;;;;;4972676;28;20914;-78
2022/07/31 02:00:10;;;;;;;0.50;0.30;;;20.30;99.90;;;;;;4972911;28;20441;-79
2022/07/31 02:02:40;;;;;;;0.50;0.30;;;20.30;99.90;;;;;;4972004;28;20481;-78
2022/07/31 02:05:10;;;;;;;0.50;0.30;;;20.20;99.90;;;;;;4972630;28;20811;-76
2022/07/31 02:07:39;;;;;;;0.50;0.40;;;20.20;99.90;;;;;;4972454;28;20455;-78
2022/07/31 02:10:08;;;;;;;0.50;0.30;;;20.20;99.90;;;;;;4972715;28;20444;-78
2022/07/31 02:12:36;;;;;;;0.50;0.40;;;20.20;99.90;;;;;;4971890;28;20539;-78
2022/07/31 02:15:06;;;;;;;0.50;0.30;;;20.10;99.90;;;;;;4972297;28;20535;-80
2022/07/31 02:17:34;;;;;;;0.50;0.30;;;20.10;99.90;;;;;;4972485;28;20528;-78
2022/07/31 02:20:04;;;;;;;0.50;0.30;;;20.10;99.90;;;;;;4972466;28;20836;-78
2022/07/31 02:22:31;;;;;;;0.50;0.50;;;20.00;99.90;;;;;;4972105;28;20481;-78
2022/07/31 02:24:59;;;;;;;0.50;0.40;;;19.90;99.90;;;;;;4972250;28;20942;-77
2022/07/31 02:27:28;;;;;;;0.50;0.40;;;19.90;99.90;;;;;;4972605;28;20531;-77
2022/07/31 02:29:57;;;;;;;0.50;0.40;;;19.90;99.90;;;;;;4976432;28;20863;-79
2022/07/31 02:32:25;;;;;;;0.50;0.30;;;19.90;99.90;;;;;;4975376;28;20476;-78
2022/07/31 02:34:54;;;;;;;0.50;0.30;;;19.80;99.90;;;;;;4975856;28;20942;-78
2022/07/31 02:37:23;;;;;;;0.50;0.30;;;19.80;99.90;;;;;;4976129;28;20502;-78
2022/07/31 02:39:52;;;;;;;0.50;0.30;;;19.80;99.90;;;;;;4975884;28;20444;-78
2022/07/31 02:42:20;;;;;;;0.50;0.40;;;19.70;99.90;;;;;;4975286;28;20584;-79
2022/07/31 02:44:48;;;;;;;0.50;0.30;;;19.70;99.90;;;;;;4975944;28;20480;-78
2022/07/31 02:47:16;;;;;;;0.50;0.30;;;19.70;99.90;;;;;;4975700;28;20945;-78
2022/07/31 02:49:44;;;;;;;0.50;0.30;;;19.70;99.90;;;;;;4975965;28;20445;-78
2022/07/31 02:52:12;;;;;;;1.17;1.17;;;19.70;99.90;;;;;;4974927;28;20576;-76
2022/07/31 02:54:41;;;;;;;0.50;0.30;;;19.80;99.90;;;;;;4975537;28;20448;-78
2022/07/31 02:57:08;;;;;;;0.50;0.30;;;19.80;99.90;;;;;;4975569;28;20814;-78
2022/07/31 02:59:37;;;;;;;0.50;0.30;;;19.90;99.90;;;;;;4976009;28;20440;-78
2022/07/31 03:02:04;;;;;;;0.50;0.40;;;19.90;99.90;;;;;;4974946;28;20496;-76
2022/07/31 03:04:31;;;;;;;0.50;0.30;;;19.80;99.90;;;;;;4975358;28;20852;-77
2022/07/31 03:07:00;;;;;;;0.50;0.33;;;19.80;99.90;;;;;;4975098;28;20527;-78
2022/07/31 03:09:27;;;;;;;0.50;0.30;;;19.70;99.90;;;;;;4975485;28;20470;-79
2022/07/31 03:11:55;;;;;;;0.50;0.30;;;19.70;99.90;;;;;;4975078;28;20575;-78
2022/07/31 03:14:24;;;;;;;0.50;0.30;;;19.80;99.90;;;;;;4975346;28;20527;-77
2022/07/31 03:16:52;;;;;;;0.50;0.40;;;19.80;99.90;;;;;;4975026;28;20524;-78
2022/07/31 03:19:20;;;;;;;0.50;0.30;;;19.80;99.90;;;;;;4975317;28;20877;-79
2022/07/31 03:21:48;;;;;;;0.50;0.30;;;19.80;99.90;;;;;;4974840;28;20503;-77
2022/07/31 03:24:16;;;;;;;2.97;2.73;;;19.70;99.90;;;;;;4975463;28;20559;-78
2022/07/31 03:26:43;;;;;;;0.50;0.40;;;19.70;99.90;;;;;;4974933;28;20480;-79
2022/07/31 03:29:11;;;;;;;0.50;0.30;;;19.80;99.90;;;;;;4974701;28;20469;-78
2022/07/31 03:31:38;;;;;;;0.50;0.30;;;19.80;99.90;;;;;;4974909;28;20572;-77
2022/07/31 03:34:04;;;;;;;0.50;0.50;;;19.80;99.90;;;;;;4974832;28;20477;-74
2022/07/31 03:36:31;;;;;;;0.50;0.30;;;19.90;99.90;;;;;;4975318;28;20527;-78
2022/07/31 03:38:58;;;;;;;0.50;0.40;;;19.90;99.90;;;;;;4974641;28;20447;-79
2022/07/31 03:41:25;;;;;;;0.50;0.30;;;19.90;99.90;;;;;;4974298;28;20986;-78
2022/07/31 03:43:53;;;;;;;0.50;0.30;;;20.00;99.90;;;;;;4974498;28;20480;-78
2022/07/31 03:46:23;;;;;;;0.50;0.30;;;20.00;99.90;;;;;;4974748;28;20441;-78
2022/07/31 03:48:50;;;;;;;0.50;0.30;;;20.00;99.90;;;;;;4974794;28;20429;-77
2022/07/31 03:51:18;;;;;;;0.50;0.30;;;20.10;99.90;;;;;;4974537;28;20449;-80
2022/07/31 03:53:47;;;;;;;0.60;0.40;;;20.10;99.90;;;;;;4974139;28;20476;-77
2022/07/31 03:56:17;;;;;;;0.50;0.40;;;20.20;99.90;;;;;;4975196;28;20480;-78
2022/07/31 03:58:44;;;;;;;0.50;0.30;;;20.30;99.90;;;;;;4974465;28;20441;-76
2022/07/31 04:01:11;;;;;;;0.70;0.70;;;20.30;99.90;;;;;;4974556;28;20441;-78
2022/07/31 04:03:39;;;;;;;0.50;0.30;;;20.30;99.90;;;;;;4974117;28;20512;-77
2022/07/31 04:06:07;;;;;;;0.60;0.50;;;20.30;99.90;;;;;;4974621;28;20531;-78
2022/07/31 04:08:33;;;;;;;0.50;0.30;;;20.40;99.90;;;;;;4974371;28;20481;-76
2022/07/31 04:11:00;;;;;;;0.50;0.37;;;20.40;99.90;;;;;;4973903;28;20460;-75
2022/07/31 04:13:27;;;;;;;0.87;0.87;;;20.40;99.90;;;;;;4974374;28;20796;-76
2022/07/31 04:15:54;;;;;;;0.50;0.30;;;20.50;99.90;;;;;;4974319;28;20440;-76
2022/07/31 04:18:21;;;;;;;0.60;0.60;;;20.50;99.90;;;;;;4974204;28;20436;-77
2022/07/31 04:20:49;;;;;;;0.60;0.60;;;20.40;99.90;;;;;;4974289;28;20467;-76
2022/07/31 04:23:16;;;;;;;0.50;0.30;;;20.40;99.90;;;;;;4973657;28;20481;-77
2022/07/31 04:25:43;;;;;;;0.50;0.30;;;20.50;99.90;;;;;;4973633;28;20452;-76
2022/07/31 04:28:10;;;;;;;0.50;0.30;;;20.50;99.90;;;;;;4973757;28;21040;-76
2022/07/31 04:30:37;;;;;;;0.50;0.30;;;20.50;99.90;;;;;;4973661;28;20448;-76
2022/07/31 04:33:04;;;;;;;0.70;0.50;;;20.50;99.90;;;;;;4974313;28;20491;-73
2022/07/31 04:35:31;;;;;;;0.50;0.40;;;20.50;99.90;;;;;;4974562;28;20528;-76
2022/07/31 04:37:59;;;;;;;1.57;0.73;;;20.40;99.90;;;;;;4974087;28;20811;-76
2022/07/31 04:40:26;;;;;;;0.60;0.40;;;20.40;99.90;;;;;;4973926;28;20812;-76
2022/07/31 04:42:53;;;;;;;0.50;0.43;;;20.50;99.90;;;;;;4973122;28;21049;-76
2022/07/31 04:45:20;;;;;;;1.70;0.60;;;20.50;99.90;;;;;;4973856;28;20480;-77
2022/07/31 04:47:46;;;;;;;0.80;0.70;;;20.40;99.90;;;;;;4973431;28;20444;-77
2022/07/31 04:50:13;;;;;;;0.50;0.40;;;20.40;99.90;;;;;;4973101;28;20539;-76
2022/07/31 04:52:40;;;;;;;0.50;0.30;;;20.50;99.90;;;;;;4972543;28;20905;-77
2022/07/31 04:55:09;;;;;;;0.50;0.30;;;20.40;99.90;;;;;;4973653;28;20491;-73
2022/07/31 04:57:36;;;;;;;0.50;0.40;;;20.30;99.90;;;;;;4973583;28;20531;-77
2022/07/31 05:00:05;;;;;;;0.60;0.50;;;20.40;99.90;;;;;;4973540;28;20463;-76
2022/07/31 05:02:32;;;;;;;1.73;1.27;;;20.40;99.90;;;;;;4972218;28;20464;-76
2022/07/31 05:04:59;;;;;;;0.50;0.30;;;20.50;99.90;;;;;;4973052;28;20907;-77
2022/07/31 05:07:26;;;;;;;1.13;0.40;;;20.40;99.90;;;;;;4973291;28;20539;-76
2022/07/31 05:09:53;;;;;;;0.50;0.30;;;20.40;99.90;;;;;;4973358;28;20791;-77
2022/07/31 05:12:21;;;;;;;0.50;0.30;;;20.40;99.90;;;;;;4973001;28;20507;-77
2022/07/31 05:14:48;;;;;;;1.10;0.80;;;20.40;99.90;;;;;;4973032;28;20524;-76
2022/07/31 05:17:14;;;;;;;0.90;0.90;;;20.40;99.90;;;;;;4972709;28;20449;-77
2022/07/31 05:19:41;;;;;;;0.50;0.40;;;20.50;99.90;;;;;;4973488;28;20486;-76
2022/07/31 05:22:08;;;;;;;0.50;0.30;;;20.50;99.90;;;;;;4972758;28;20471;-77
2022/07/31 05:24:35;;;;;;;2.53;2.03;;;20.50;99.90;;;;;;4973070;28;20508;-76
2022/07/31 05:27:02;;;;;;;0.50;0.40;;;20.50;99.90;;;;;;4973168;28;20532;-77
2022/07/31 05:29:31;;;;;;;1.47;1.37;;;20.50;99.90;;;;;;4972608;28;20448;-76
2022/07/31 05:31:58;;;;;;;0.50;0.47;;;20.50;99.90;;;;;;4972293;28;20508;-76
2022/07/31 05:34:25;;;;;;;1.10;1.10;;;20.50;99.90;;;;;;4973084;28;20476;-76
2022/07/31 05:36:52;;;;;;;2.90;0.70;;;20.50;99.90;;;;;;4973122;28;20524;-77
2022/07/31 05:39:19;;;;;;;0.70;0.50;;;20.50;99.90;;;;;;4972918;28;20468;-76
2022/07/31 05:41:47;;;;;;;0.60;0.60;;;20.50;99.90;;;;;;4972162;28;20556;-77
2022/07/31 05:44:14;;;;;;;0.50;0.33;;;20.60;99.90;;;;;;4972780;28;20476;-76
2022/07/31 05:46:42;;;;;;;0.90;0.57;;;20.70;99.90;;;;;;4972894;28;20484;-76
2022/07/31 05:49:09;;;;;;;0.67;0.67;;;20.70;99.90;;;;;;4972937;28;20535;-75
2022/07/31 05:51:36;;;;;;;1.23;1.13;;;20.70;99.90;;;;;;4972271;28;20547;-76
2022/07/31 05:54:03;;;;;;;0.60;0.50;;;20.70;99.90;;;;;;4971947;28;20484;-76
2022/07/31 05:56:30;;;;;;;3.27;2.10;;;20.80;99.90;;;;;;4972612;28;20451;-76
2022/07/31 05:58:57;;;;;;;1.27;1.10;;;20.90;99.90;;;;;;4972724;28;20440;-77
2022/07/31 06:01:24;;;;;;;1.53;1.43;;;20.90;99.90;;;;;;4971919;28;20469;-77
2022/07/31 06:03:52;;;;;;;4.10;1.53;;;21.00;99.90;;;;;;4974654;28;20475;-76
2022/07/31 06:06:19;;;;;;;0.97;0.80;;;21.00;99.90;;;;;;4987023;28;20473;-79
2022/07/31 06:08:46;;;;;;;0.50;0.40;;;21.00;99.90;;;;;;4976307;28;20495;-77
2022/07/31 06:11:12;;;;;;;0.80;0.73;;;21.10;99.90;;;;;;4980494;28;20445;-77
2022/07/31 06:13:42;;;;;;;0.50;0.30;;;21.30;99.90;;;;;;4975763;28;20469;-78
2022/07/31 06:16:12;;;;;;;0.50;0.40;;;21.50;99.90;;;;;;4983112;28;21009;-79
2022/07/31 06:18:39;;;;;;;0.60;0.60;;;21.80;99.90;;;;;;4977725;28;20535;-77
2022/07/31 06:21:07;;;;;;;0.50;0.40;;;21.90;99.90;;;;;;4977482;28;20495;-79
2022/07/31 06:23:34;;;;;;;0.50;0.40;;;22.20;99.90;;;;;;4977691;28;20495;-76
2022/07/31 06:26:01;;;;;;;0.70;0.57;;;22.20;99.90;;;;;;4976405;28;20507;-78
2022/07/31 06:28:28;;;;;;;1.93;1.83;;;22.20;99.90;;;;;;4976511;28;20519;-77
2022/07/31 06:30:55;;;;;;;0.50;0.30;;;22.40;99.90;;;;;;4976627;28;20826;-78
2022/07/31 06:33:21;;;;;;;3.60;1.73;;;22.40;99.90;;;;;;4976007;28;20624;-77
2022/07/31 06:35:48;;;;;;;0.50;0.40;;;22.60;99.90;;;;;;4979006;28;20479;-77
2022/07/31 06:38:16;;;;;;;0.60;0.40;;;22.40;99.90;;;;;;4976172;28;20468;-77
2022/07/31 06:40:43;;;;;;;2.70;1.77;;;22.40;99.90;;;;;;4976240;28;20652;-77
2022/07/31 06:43:10;;;;;;;0.70;0.60;;;22.20;99.90;;;;;;4975788;28;20893;-77
2022/07/31 06:45:37;;;;;;;0.60;0.40;;;22.00;99.90;;;;;;4975749;28;20543;-77
2022/07/31 06:48:04;;;;;;;48.30;2.33;;;21.90;99.90;;;;;;4976321;28;20878;-77
2022/07/31 06:50:31;;;;;;;0.70;0.60;;;21.90;99.90;;;;;;4975737;28;20440;-77
2022/07/31 06:52:58;;;;;;;0.97;0.97;;;22.00;99.90;;;;;;4975701;28;20551;-76
2022/07/31 06:55:26;;;;;;;0.60;0.60;;;22.10;99.90;;;;;;4975602;28;20527;-76
2022/07/31 06:57:53;;;;;;;1.90;1.03;;;22.10;99.90;;;;;;4976073;28;20476;-75
2022/07/31 07:00:20;;;;;;;1.70;1.60;;;22.20;99.90;;;;;;4975590;28;20536;-75
2022/07/31 07:02:47;;;;;;;0.50;0.40;;;22.10;99.90;;;;;;4975451;28;20464;-77
2022/07/31 07:05:14;;;;;;;5.60;1.20;;;22.10;99.90;;;;;;4975079;28;20550;-75
2022/07/31 07:07:41;;;;;;;0.60;0.60;;;22.10;99.90;;;;;;4975849;28;20806;-76
2022/07/31 07:10:08;;;;;;;2.93;2.20;;;21.90;99.90;;;;;;4975153;28;20472;-76
2022/07/31 07:12:36;;;;;;;0.60;0.57;;;21.70;99.90;;;;;;4975582;28;20548;-76
2022/07/31 07:15:03;;;;;;;0.50;0.40;;;21.50;99.90;;;;;;4975127;28;20532;-77
2022/07/31 07:17:30;;;;;;;0.70;0.70;;;21.30;99.90;;;;;;4975033;28;20531;-76
2022/07/31 07:19:57;;;;;;;0.60;0.40;;;21.00;99.90;;;;;;4974859;28;21005;-77
2022/07/31 07:22:24;;;;;;;0.60;0.60;;;20.80;99.90;;;;;;4975173;28;20887;-76
2022/07/31 07:24:51;;;;;;;0.50;0.40;;;20.60;99.90;;;;;;4975125;28;20476;-77
2022/07/31 07:27:18;;;;;;;0.50;0.40;;;20.40;99.90;;;;;;4975062;28;20535;-77
2022/07/31 07:29:46;;;;;;;0.50;0.30;;;20.40;99.90;;;;;;4974983;28;20499;-77
2022/07/31 07:32:15;;;;;;;0.83;0.83;;;20.40;99.90;;;;;;4974450;28;20556;-76
2022/07/31 07:34:41;;;;;;;0.50;0.30;;;20.50;99.90;;;;;;4974814;28;20440;-76
2022/07/31 07:37:08;;;;;;;0.50;0.40;;;20.70;99.90;;;;;;4975287;28;20541;-76
2022/07/31 07:39:35;;;;;;;1.53;1.43;;;20.80;99.90;;;;;;4974684;28;20429;-76
2022/07/31 07:42:02;;;;;;;0.50;0.30;;;20.90;99.90;;;;;;4974839;28;20471;-76
2022/07/31 07:44:29;;;;;;;0.70;0.67;;;20.80;99.90;;;;;;4974393;28;20485;-76
2022/07/31 07:46:57;;;;;;;0.50;0.50;;;20.90;99.90;;;;;;4974869;28;20476;-76
2022/07/31 07:49:24;;;;;;;1.07;0.73;;;21.00;99.90;;;;;;4974663;28;20447;-78
2022/07/31 07:51:51;;;;;;;1.07;0.97;;;21.10;99.90;;;;;;4974197;28;20551;-77
2022/07/31 07:54:18;;;;;;;0.70;0.50;;;21.20;99.90;;;;;;4975480;28;20487;-77
2022/07/31 07:56:45;;;;;;;0.50;0.30;;;21.20;99.90;;;;;;4974348;28;20441;-77
2022/07/31 07:59:12;;;;;;;0.60;0.50;;;21.40;99.90;;;;;;4975010;28;20476;-77
2022/07/31 08:01:39;;;;;;;0.70;0.50;;;21.40;99.90;;;;;;4973977;28;20465;-77
2022/07/31 08:04:07;;;;;;;1.67;1.00;;;21.60;99.90;;;;;;4974664;28;20516;-76
2022/07/31 08:06:34;;;;;;;0.90;0.90;;;21.50;99.90;;;;;;4974178;28;20476;-76
2022/07/31 08:09:01;;;;;;;0.60;0.57;;;21.50;99.90;;;;;;4974139;28;20451;-77
2022/07/31 08:11:28;;;;;;;0.50;0.30;;;21.50;99.90;;;;;;4973906;28;21006;-78
2022/07/31 08:13:55;;;;;;;0.50;0.40;;;21.40;99.90;;;;;;4974377;28;20445;-76
2022/07/31 08:16:22;;;;;;;0.80;0.80;;;21.50;99.90;;;;;;4973855;28;20432;-76
2022/07/31 08:18:50;;;;;;;0.60;0.50;;;21.40;99.90;;;;;;4973797;28;21013;-76
2022/07/31 08:21:18;;;;;;;1.37;1.23;;;21.30;99.90;;;;;;4974410;28;20452;-76
2022/07/31 08:23:46;;;;;;;0.60;0.50;;;21.30;99.90;;;;;;4974498;28;20539;-77
2022/07/31 08:26:13;;;;;;;4.60;1.00;;;21.40;99.90;;;;;;4973295;28;20531;-77
2022/07/31 08:28:39;;;;;;;0.70;0.70;;;21.50;99.90;;;;;;4974740;28;20822;-76
2022/07/31 08:31:06;;;;;;;0.50;0.33;;;21.30;99.90;;;;;;4973665;28;20528;-77
2022/07/31 08:33:33;;;;;;;3.90;0.77;;;21.40;99.90;;;;;;4973814;28;20432;-77
2022/07/31 08:36:01;;;;;;;1.63;1.07;;;21.40;99.90;;;;;;4973743;28;20528;-78
2022/07/31 08:38:29;;;;;;;0.50;0.40;;;21.50;99.90;;;;;;4974003;28;20444;-77
2022/07/31 08:40:56;;;;;;;1.73;1.00;;;21.60;99.90;;;;;;4973677;28;20529;-77
2022/07/31 08:43:23;;;;;;;1.07;0.67;;;21.50;99.90;;;;;;4973338;28;20581;-77
2022/07/31 08:45:51;;;;;;;0.50;0.30;;;21.40;99.90;;;;;;4973850;28;20473;-77
2022/07/31 08:48:21;;;;;;;0.90;0.90;;;21.30;99.90;;;;;;4973134;28;20531;-76
2022/07/31 08:50:48;;;;;;;0.90;0.80;;;21.30;99.90;;;;;;4973625;28;20527;-77
2022/07/31 08:53:16;;;;;;;0.50;0.30;;;21.30;99.90;;;;;;4972827;28;20500;-77
2022/07/31 08:55:45;;;;;;;0.50;0.40;;;21.40;99.90;;;;;;4973256;28;20480;-77
2022/07/31 08:58:12;;;;;;;1.23;0.93;;;21.60;99.90;;;;;;4973979;28;20441;-77
2022/07/31 09:00:41;;;;;;;0.70;0.50;;;21.70;99.90;;;;;;4973143;28;20440;-77
2022/07/31 09:03:08;;;;;;;0.60;0.50;;;21.70;99.90;;;;;;4972822;28;20465;-76
2022/07/31 09:05:37;;;;;;;0.60;0.60;;;21.60;99.90;;;;;;4973098;28;20515;-77
2022/07/31 09:08:04;;;;;;;20.93;1.27;;;21.60;99.90;;;;;;4973259;28;20520;-77
2022/07/31 09:10:31;;;;;;;2.93;1.90;;;21.70;99.90;;;;;;4973013;28;20885;-76
2022/07/31 09:13:01;;;;;;;1.10;0.60;;;21.60;99.90;;;;;;4973162;28;20472;-77
2022/07/31 09:15:31;;;;;;;2.50;1.40;;;21.90;99.90;;;;;;4973128;28;20433;-77
2022/07/31 09:17:58;;;;;;;0.93;0.50;;;22.00;99.90;;;;;;4973225;28;20441;-77
2022/07/31 09:20:29;;;;;;;0.50;0.40;;;22.20;99.90;;;;;;4973171;28;20535;-77
2022/07/31 09:23:05;;;;;;;1.17;1.17;;;22.40;99.90;;;;;;4972882;28;20473;-77
2022/07/31 09:25:32;;;;;;;1.47;1.17;;;22.70;99.90;;;;;;4972384;28;20479;-76
2022/07/31 09:28:04;;;;;;;0.50;0.40;;;22.80;99.90;;;;;;4973378;28;20436;-76
2022/07/31 09:30:32;;;;;;;0.50;0.40;;;23.00;99.90;;;;;;4973001;28;20437;-77
2022/07/31 09:33:13;;;;;;;2.40;1.30;;;23.40;99.90;;;;;;4972514;28;20567;-76
2022/07/31 09:35:47;;;;;;;0.73;0.40;;;23.20;99.90;;;;;;4972649;28;20429;-76
2022/07/31 09:38:14;;;;;;;0.50;0.40;;;23.00;99.90;;;;;;4972761;28;20528;-73
2022/07/31 09:40:43;;;;;;;0.50;0.30;;;22.90;99.90;;;;;;4972487;28;20532;-76
2022/07/31 09:43:16;;;;;;;2.03;0.60;;;22.90;99.90;;;;;;4972227;28;21101;-76
2022/07/31 09:45:45;;;;;;;0.60;0.60;;;23.00;99.90;;;;;;4972310;28;20475;-75
2022/07/31 09:48:12;;;;;;;0.80;0.60;;;23.00;99.90;;;;;;4972763;28;20444;-77
2022/07/31 09:50:45;;;;;;;0.77;0.77;;;22.90;99.90;;;;;;4972840;28;20565;-77
2022/07/31 09:53:12;;;;;;;1.53;1.43;;;22.90;99.90;;;;;;4971933;28;21035;-76
2022/07/31 09:55:49;;;;;;;1.10;1.03;;;22.80;99.90;;;;;;4972641;28;20448;-77
2022/07/31 09:58:18;;;;;;;0.70;0.50;;;22.60;99.90;;;;;;4972724;28;20444;-77
2022/07/31 10:00:46;;;;;;;0.97;0.70;;;22.70;99.90;;;;;;4972367;28;20523;-76
2022/07/31 10:03:16;;;;;;;0.57;0.40;;;22.70;99.90;;;;;;4972214;28;20887;-77
2022/07/31 10:05:44;;;;;;;1.40;0.87;;;22.50;99.90;;;;;;4972702;28;20468;-77
2022/07/31 10:08:15;;;;;;;0.50;0.50;;;22.50;99.90;;;;;;4972543;28;20480;-77
2022/07/31 10:10:43;;;;;;;0.73;0.73;;;22.40;99.90;;;;;;4972393;28;20436;-77
2022/07/31 10:13:14;;;;;;;0.50;0.40;;;22.40;99.90;;;;;;4972245;28;20565;-77
2022/07/31 10:15:45;;;;;;;0.50;0.30;;;22.50;99.90;;;;;;4972714;28;20851;-77
2022/07/31 10:18:15;;;;;;;0.50;0.40;;;22.60;99.90;;;;;;4972648;28;20447;-77
2022/07/31 10:20:47;;;;;;;0.50;0.40;;;22.80;99.90;;;;;;4972251;28;21049;-78
2022/07/31 10:23:16;;;;;;;1.60;0.90;;;23.00;99.90;;;;;;4972031;28;20543;-77
2022/07/31 10:25:49;;;;;;;0.50;0.30;;;23.30;99.90;;;;;;4972025;28;20472;-77
2022/07/31 10:28:17;;;;;;;0.50;0.30;;;23.60;99.90;;;;;;4972284;28;20539;-77
2022/07/31 10:30:46;;;;;;;0.80;0.80;;;23.70;99.90;;;;;;4972922;28;20464;-79
2022/07/31 10:33:14;;;;;;;0.60;0.50;;;23.70;99.90;;;;;;4971975;28;20927;-78
2022/07/31 10:35:45;;;;;;;1.20;1.20;;;23.80;99.90;;;;;;4973374;28;20921;-77
2022/07/31 10:38:27;;;;;;;0.50;0.40;;;23.80;99.90;;;;;;4971936;28;20447;-77
2022/07/31 10:41:02;;;;;;;0.60;0.50;;;24.00;99.90;;;;;;4972688;28;20794;-77
2022/07/31 10:43:36;;;;;;;0.50;0.40;;;24.40;99.90;;;;;;4972622;28;20503;-78
2022/07/31 10:46:04;;;;;;;0.50;0.50;;;25.00;99.90;;;;;;4974412;28;20464;-77
2022/07/31 10:48:31;;;;;;;0.50;0.40;;;25.50;99.90;;;;;;4974412;28;20950;-77
2022/07/31 10:51:02;;;;;;;0.70;0.50;;;26.20;99.90;;;;;;4976567;28;20535;-78
2022/07/31 10:53:29;;;;;;;0.60;0.57;;;26.40;99.90;;;;;;4974850;28;20452;-78
2022/07/31 10:56:03;;;;;;;1.53;1.07;;;26.40;99.90;;;;;;4975796;28;20514;-76
2022/07/31 10:58:30;;;;;;;0.50;0.40;;;25.60;99.90;;;;;;4975213;28;20435;-75
2022/07/31 11:01:16;;;;;;;0.80;0.80;;;25.80;99.90;;;;;;4975702;28;20527;-76
2022/07/31 11:03:47;;;;;;;1.07;0.97;;;25.40;99.90;;;;;;4975217;28;20507;-77
2022/07/31 11:06:15;;;;;;;0.50;0.30;;;25.30;99.90;;;;;;4975628;28;20556;-76
2022/07/31 11:08:43;;;;;;;0.50;0.30;;;25.30;99.90;;;;;;4975228;28;20444;-77
2022/07/31 11:11:10;;;;;;;0.63;0.60;;;25.30;99.90;;;;;;4975147;28;20536;-76
2022/07/31 11:13:48;;;;;;;0.50;0.33;;;25.00;99.90;;;;;;4975149;28;20528;-76
2022/07/31 11:16:17;;;;;;;0.50;0.40;;;24.80;99.90;;;;;;4975519;28;20480;-78
2022/07/31 11:18:46;;;;;;;0.50;0.43;;;24.90;99.90;;;;;;4974801;28;20467;-77
2022/07/31 11:21:13;;;;;;;0.70;0.67;;;25.00;99.90;;;;;;4974876;28;20981;-76
2022/07/31 11:23:41;;;;;;;0.73;0.73;;;25.20;99.90;;;;;;4974740;28;20493;-77
2022/07/31 11:26:08;;;;;;;1.33;1.23;;;25.30;99.90;;;;;;4975126;28;20841;-76
2022/07/31 11:28:35;;;;;;;1.40;1.27;;;25.20;99.90;;;;;;4974673;28;20456;-76
2022/07/31 11:31:05;;;;;;;0.50;0.40;;;24.90;99.90;;;;;;4974555;28;20472;-77
2022/07/31 11:33:37;;;;;;;0.50;0.50;;;24.60;99.90;;;;;;4974895;28;20429;-78
2022/07/31 11:36:09;;;;;;;5.63;1.43;;;24.40;99.90;;;;;;4974973;28;20432;-77
2022/07/31 11:38:37;;;;;;;0.60;0.50;;;24.10;99.90;;;;;;4974579;28;20451;-78
2022/07/31 11:41:05;;;;;;;0.50;0.40;;;23.90;99.90;;;;;;4975239;28;20449;-77
2022/07/31 11:43:33;;;;;;;0.50;0.30;;;23.90;99.90;;;;;;4974185;28;20551;-77
2022/07/31 11:46:00;;;;;;;1.40;1.30;;;24.00;99.90;;;;;;4974869;28;20495;-77
2022/07/31 11:48:30;;;;;;;0.50;0.40;;;23.90;99.90;;;;;;4974191;28;20552;-77
2022/07/31 11:50:59;;;;;;;0.90;0.73;;;23.80;99.90;;;;;;4974704;28;20866;-77
2022/07/31 11:53:26;;;;;;;0.60;0.50;;;23.70;99.90;;;;;;4974023;28;20469;-79
2022/07/31 11:55:55;;;;;;;0.50;0.30;;;23.70;99.90;;;;;;4974628;28;20527;-77
2022/07/31 11:58:23;;;;;;;0.97;0.73;;;23.80;99.90;;;;;;4974322;28;20824;-77
2022/07/31 12:00:52;;;;;;;0.50;0.40;;;24.10;99.90;;;;;;4973272;28;20447;-76
2022/07/31 12:03:21;;;;;;;0.50;0.30;;;24.40;99.90;;;;;;4974065;28;20841;-77
2022/07/31 12:05:48;;;;;;;0.50;0.30;;;24.80;99.90;;;;;;4974474;28;20838;-77
2022/07/31 12:08:18;;;;;;;0.60;0.50;;;25.20;99.90;;;;;;4974458;28;20448;-73
2022/07/31 12:10:45;;;;;;;0.50;0.30;;;25.70;99.90;;;;;;4973954;28;20540;-77
2022/07/31 12:13:13;;;;;;;0.50;0.30;;;26.00;99.90;;;;;;4973625;28;20544;-78
2022/07/31 12:15:41;;;;;;;4.10;0.87;;;26.30;99.90;;;;;;4974345;28;20440;-77
2022/07/31 12:18:08;;;;;;;0.87;0.87;;;26.70;99.90;;;;;;4974166;28;20445;-76
2022/07/31 12:20:35;;;;;;;0.50;0.40;;;26.60;99.90;;;;;;4974034;28;20532;-76
2022/07/31 12:23:04;;;;;;;0.50;0.40;;;26.50;99.90;;;;;;4973940;28;20504;-77
2022/07/31 12:25:44;;;;;;;0.90;0.90;;;26.20;99.90;;;;;;4973841;28;20476;-77
2022/07/31 12:28:13;;;;;;;0.57;0.50;;;26.30;99.90;;;;;;4973547;28;20480;-77
2022/07/31 12:30:40;;;;;;;0.50;0.30;;;26.40;99.90;;;;;;4973833;28;20491;-76
2022/07/31 12:33:09;;;;;;;1.37;1.13;;;26.50;99.90;;;;;;4973607;28;20479;-74
2022/07/31 12:35:38;;;;;;;0.50;0.43;;;26.50;99.90;;;;;;4973982;28;20480;-76
2022/07/31 12:38:05;;;;;;;0.50;0.50;;;26.00;99.90;;;;;;4973397;28;20448;-77
2022/07/31 12:40:32;;;;;;;0.50;0.30;;;26.00;99.90;;;;;;4973507;28;20532;-77
2022/07/31 12:43:00;;;;;;;0.50;0.30;;;26.10;99.90;;;;;;4972771;28;20996;-76
2022/07/31 12:45:35;;;;;;;0.50;0.40;;;26.10;99.90;;;;;;4973874;28;20448;-77
2022/07/31 12:48:03;;;;;;;0.57;0.40;;;26.00;99.90;;;;;;4973851;28;20503;-76
2022/07/31 12:50:32;;;;;;;0.50;0.30;;;25.90;99.90;;;;;;4973514;28;20536;-77
2022/07/31 12:53:01;;;;;;;0.50;0.30;;;25.70;99.90;;;;;;4972586;28;20547;-77